sensor_id;sensor_type;location;lat;lon;timestamp;temperature;humidity
1011;DHT22;494;48.744;10.106;2023-05-07T00:00:10;14.20;39.90
1011;DHT22;494;48.744;10.106;2023-05-07T00:02:44;14.20;39.70
1011;DHT22;494;48.744;10.106;2023-05-07T00:05:16;14.20;39.70
1011;DHT22;494;48.744;10.106;2023-05-07T00:07:47;14.20;39.80
1011;DHT22;494;48.744;10.106;2023-05-07T00:10:16;14.20;39.70
1011;DHT22;494;48.744;10.106;2023-05-07T00:12:45;14.20;39.60
1011;DHT22;494;48.744;10.106;2023-05-07T00:15:15;14.20;39.70
1011;DHT22;494;48.744;10.106;2023-05-07T00:17:53;14.20;39.40
1011;DHT22;494;48.744;10.106;2023-05-07T00:20:23;14.00;39.50
1011;DHT22;494;48.744;10.106;2023-05-07T00:22:53;13.90;39.80
1011;DHT22;494;48.744;10.106;2023-05-07T00:25:22;14.00;39.80
1011;DHT22;494;48.744;10.106;2023-05-07T00:27:51;13.90;39.70
1011;DHT22;494;48.744;10.106;2023-05-07T00:30:20;13.90;39.60
1011;DHT22;494;48.744;10.106;2023-05-07T00:32:50;14.00;39.60
1011;DHT22;494;48.744;10.106;2023-05-07T00:35:19;14.00;39.60
1011;DHT22;494;48.744;10.106;2023-05-07T00:37:47;14.00;39.60
1011;DHT22;494;48.744;10.106;2023-05-07T00:40:16;14.00;39.60
1011;DHT22;494;48.744;10.106;2023-05-07T00:42:45;14.00;39.60
1011;DHT22;494;48.744;10.106;2023-05-07T00:45:16;13.90;39.60
1011;DHT22;494;48.744;10.106;2023-05-07T00:47:44;13.90;39.70
1011;DHT22;494;48.744;10.106;2023-05-07T00:50:15;13.90;39.80
1011;DHT22;494;48.744;10.106;2023-05-07T00:52:44;13.90;39.80
1011;DHT22;494;48.744;10.106;2023-05-07T00:55:12;14.00;39.80
1011;DHT22;494;48.744;10.106;2023-05-07T00:57:41;14.00;39.70
1011;DHT22;494;48.744;10.106;2023-05-07T01:00:14;14.00;39.70
1011;DHT22;494;48.744;10.106;2023-05-07T01:02:45;14.00;39.70
1011;DHT22;494;48.744;10.106;2023-05-07T01:05:19;13.90;39.90
1011;DHT22;494;48.744;10.106;2023-05-07T01:07:51;14.00;40.00
1011;DHT22;494;48.744;10.106;2023-05-07T01:10:22;14.00;40.00
1011;DHT22;494;48.744;10.106;2023-05-07T01:12:52;14.00;39.80
1011;DHT22;494;48.744;10.106;2023-05-07T01:15:22;14.00;39.60
1011;DHT22;494;48.744;10.106;2023-05-07T01:17:52;14.10;39.50
1011;DHT22;494;48.744;10.106;2023-05-07T01:20:23;14.00;39.40
1011;DHT22;494;48.744;10.106;2023-05-07T01:22:54;14.00;39.30
1011;DHT22;494;48.744;10.106;2023-05-07T01:25:27;14.00;39.40
1011;DHT22;494;48.744;10.106;2023-05-07T01:27:57;14.00;39.40
1011;DHT22;494;48.744;10.106;2023-05-07T01:30:28;14.00;39.50
1011;DHT22;494;48.744;10.106;2023-05-07T01:33:01;14.00;39.50
1011;DHT22;494;48.744;10.106;2023-05-07T01:35:37;14.10;39.60
1011;DHT22;494;48.744;10.106;2023-05-07T01:38:10;14.00;39.50
1011;DHT22;494;48.744;10.106;2023-05-07T01:40:39;13.90;39.50
1011;DHT22;494;48.744;10.106;2023-05-07T01:43:10;14.00;39.60
1011;DHT22;494;48.744;10.106;2023-05-07T01:45:40;13.90;39.80
1011;DHT22;494;48.744;10.106;2023-05-07T01:48:12;13.90;39.70
1011;DHT22;494;48.744;10.106;2023-05-07T01:50:44;13.90;39.80
1011;DHT22;494;48.744;10.106;2023-05-07T01:53:14;13.90;39.80
1011;DHT22;494;48.744;10.106;2023-05-07T01:55:44;14.00;39.90
1011;DHT22;494;48.744;10.106;2023-05-07T01:58:14;13.90;39.90
1011;DHT22;494;48.744;10.106;2023-05-07T02:00:42;13.90;40.00
1011;DHT22;494;48.744;10.106;2023-05-07T02:03:12;13.80;40.00
1011;DHT22;494;48.744;10.106;2023-05-07T02:05:41;13.80;40.20
1011;DHT22;494;48.744;10.106;2023-05-07T02:08:10;13.80;40.20
1011;DHT22;494;48.744;10.106;2023-05-07T02:10:42;13.80;40.90
1011;DHT22;494;48.744;10.106;2023-05-07T02:13:15;13.90;40.30
1011;DHT22;494;48.744;10.106;2023-05-07T02:15:44;13.90;40.20
1011;DHT22;494;48.744;10.106;2023-05-07T02:18:17;13.80;39.80
1011;DHT22;494;48.744;10.106;2023-05-07T02:20:46;13.80;39.90
1011;DHT22;494;48.744;10.106;2023-05-07T02:23:15;13.80;39.90
1011;DHT22;494;48.744;10.106;2023-05-07T02:25:45;13.80;39.90
1011;DHT22;494;48.744;10.106;2023-05-07T02:28:14;13.80;39.90
1011;DHT22;494;48.744;10.106;2023-05-07T02:30:43;13.80;39.80
1011;DHT22;494;48.744;10.106;2023-05-07T02:33:12;13.80;39.70
1011;DHT22;494;48.744;10.106;2023-05-07T02:35:41;13.80;39.50
1011;DHT22;494;48.744;10.106;2023-05-07T02:38:09;13.70;39.50
1011;DHT22;494;48.744;10.106;2023-05-07T02:40:38;13.70;40.10
1011;DHT22;494;48.744;10.106;2023-05-07T02:43:08;13.70;39.60
1011;DHT22;494;48.744;10.106;2023-05-07T02:45:37;13.70;39.70
1011;DHT22;494;48.744;10.106;2023-05-07T02:48:06;13.70;39.80
1011;DHT22;494;48.744;10.106;2023-05-07T02:50:34;13.50;40.50
1011;DHT22;494;48.744;10.106;2023-05-07T02:53:03;13.70;39.90
1011;DHT22;494;48.744;10.106;2023-05-07T02:55:31;13.70;39.90
1011;DHT22;494;48.744;10.106;2023-05-07T02:58:00;13.70;39.90
1011;DHT22;494;48.744;10.106;2023-05-07T03:00:31;13.70;39.90
1011;DHT22;494;48.744;10.106;2023-05-07T03:02:59;13.60;39.80
1011;DHT22;494;48.744;10.106;2023-05-07T03:05:28;13.60;39.90
1011;DHT22;494;48.744;10.106;2023-05-07T03:07:57;13.60;40.10
1011;DHT22;494;48.744;10.106;2023-05-07T03:10:25;13.60;40.30
1011;DHT22;494;48.744;10.106;2023-05-07T03:12:54;13.50;40.30
1011;DHT22;494;48.744;10.106;2023-05-07T03:15:23;13.50;40.40
1011;DHT22;494;48.744;10.106;2023-05-07T03:17:53;13.50;40.40
1011;DHT22;494;48.744;10.106;2023-05-07T03:20:22;13.40;40.20
1011;DHT22;494;48.744;10.106;2023-05-07T03:22:51;13.40;40.20
1011;DHT22;494;48.744;10.106;2023-05-07T03:25:19;13.40;40.20
1011;DHT22;494;48.744;10.106;2023-05-07T03:27:48;13.30;40.10
1011;DHT22;494;48.744;10.106;2023-05-07T03:30:18;13.30;40.20
1011;DHT22;494;48.744;10.106;2023-05-07T03:32:47;13.30;40.20
1011;DHT22;494;48.744;10.106;2023-05-07T03:35:17;13.30;40.80
1011;DHT22;494;48.744;10.106;2023-05-07T03:37:46;13.30;40.10
1011;DHT22;494;48.744;10.106;2023-05-07T03:40:14;13.30;40.10
1011;DHT22;494;48.744;10.106;2023-05-07T03:42:43;13.20;40.30
1011;DHT22;494;48.744;10.106;2023-05-07T03:45:12;13.20;40.40
1011;DHT22;494;48.744;10.106;2023-05-07T03:47:41;13.20;40.50
1011;DHT22;494;48.744;10.106;2023-05-07T03:50:10;13.20;40.50
1011;DHT22;494;48.744;10.106;2023-05-07T03:52:42;13.20;40.50
1011;DHT22;494;48.744;10.106;2023-05-07T03:55:12;13.20;40.50
1011;DHT22;494;48.744;10.106;2023-05-07T03:57:40;13.20;40.30
1011;DHT22;494;48.744;10.106;2023-05-07T04:00:10;13.20;40.10
1011;DHT22;494;48.744;10.106;2023-05-07T04:02:40;13.10;40.30
1011;DHT22;494;48.744;10.106;2023-05-07T04:05:08;13.00;40.40
1011;DHT22;494;48.744;10.106;2023-05-07T04:07:37;13.00;40.50
1011;DHT22;494;48.744;10.106;2023-05-07T04:10:08;13.00;40.40
1011;DHT22;494;48.744;10.106;2023-05-07T04:12:38;13.00;40.40
1011;DHT22;494;48.744;10.106;2023-05-07T04:15:08;12.90;40.60
1011;DHT22;494;48.744;10.106;2023-05-07T04:17:37;12.90;40.70
1011;DHT22;494;48.744;10.106;2023-05-07T04:20:08;12.90;40.80
1011;DHT22;494;48.744;10.106;2023-05-07T04:22:38;12.90;40.90
1011;DHT22;494;48.744;10.106;2023-05-07T04:25:09;13.00;40.90
1011;DHT22;494;48.744;10.106;2023-05-07T04:27:38;13.00;40.70
1011;DHT22;494;48.744;10.106;2023-05-07T04:30:08;13.00;40.70
1011;DHT22;494;48.744;10.106;2023-05-07T04:32:38;13.00;40.80
1011;DHT22;494;48.744;10.106;2023-05-07T04:35:07;13.10;40.80
1011;DHT22;494;48.744;10.106;2023-05-07T04:37:36;13.10;40.70
1011;DHT22;494;48.744;10.106;2023-05-07T04:40:08;13.10;40.70
1011;DHT22;494;48.744;10.106;2023-05-07T04:42:38;13.20;40.70
1011;DHT22;494;48.744;10.106;2023-05-07T04:45:08;13.20;40.60
1011;DHT22;494;48.744;10.106;2023-05-07T04:47:37;13.20;40.50
1011;DHT22;494;48.744;10.106;2023-05-07T04:50:07;13.20;40.30
1011;DHT22;494;48.744;10.106;2023-05-07T04:52:36;13.30;40.20
1011;DHT22;494;48.744;10.106;2023-05-07T04:55:05;13.30;40.10
1011;DHT22;494;48.744;10.106;2023-05-07T04:57:36;13.30;40.00
1011;DHT22;494;48.744;10.106;2023-05-07T05:00:07;13.40;40.00
1011;DHT22;494;48.744;10.106;2023-05-07T05:02:37;13.40;39.90
1011;DHT22;494;48.744;10.106;2023-05-07T05:05:06;13.40;39.90
1011;DHT22;494;48.744;10.106;2023-05-07T05:07:35;13.40;39.80
1011;DHT22;494;48.744;10.106;2023-05-07T05:10:05;13.50;39.90
1011;DHT22;494;48.744;10.106;2023-05-07T05:12:36;13.50;39.80
1011;DHT22;494;48.744;10.106;2023-05-07T05:15:06;13.50;39.80
1011;DHT22;494;48.744;10.106;2023-05-07T05:17:37;13.50;39.70
1011;DHT22;494;48.744;10.106;2023-05-07T05:20:07;13.60;39.60
1011;DHT22;494;48.744;10.106;2023-05-07T05:22:38;13.60;39.50
1011;DHT22;494;48.744;10.106;2023-05-07T05:25:09;13.60;39.40
1011;DHT22;494;48.744;10.106;2023-05-07T05:27:38;13.70;39.40
1011;DHT22;494;48.744;10.106;2023-05-07T05:30:07;13.80;39.20
1011;DHT22;494;48.744;10.106;2023-05-07T05:32:36;13.80;39.20
1011;DHT22;494;48.744;10.106;2023-05-07T05:35:06;13.80;39.30
1011;DHT22;494;48.744;10.106;2023-05-07T05:37:35;13.80;38.40
1011;DHT22;494;48.744;10.106;2023-05-07T05:40:04;13.80;39.10
1011;DHT22;494;48.744;10.106;2023-05-07T05:42:35;13.80;39.20
1011;DHT22;494;48.744;10.106;2023-05-07T05:45:05;13.80;39.40
1011;DHT22;494;48.744;10.106;2023-05-07T05:47:34;13.80;39.80
1011;DHT22;494;48.744;10.106;2023-05-07T05:50:04;14.00;40.10
1011;DHT22;494;48.744;10.106;2023-05-07T05:52:33;14.00;39.90
1011;DHT22;494;48.744;10.106;2023-05-07T05:55:02;14.10;39.90
1011;DHT22;494;48.744;10.106;2023-05-07T05:57:31;14.10;40.70
1011;DHT22;494;48.744;10.106;2023-05-07T06:00:02;14.30;39.70
1011;DHT22;494;48.744;10.106;2023-05-07T06:02:33;14.40;39.50
1011;DHT22;494;48.744;10.106;2023-05-07T06:05:03;14.60;39.00
1011;DHT22;494;48.744;10.106;2023-05-07T06:07:32;14.80;38.70
1011;DHT22;494;48.744;10.106;2023-05-07T06:10:03;15.00;38.60
1011;DHT22;494;48.744;10.106;2023-05-07T06:12:32;15.10;38.10
1011;DHT22;494;48.744;10.106;2023-05-07T06:15:02;15.40;38.10
1011;DHT22;494;48.744;10.106;2023-05-07T06:17:32;15.60;37.00
1011;DHT22;494;48.744;10.106;2023-05-07T06:20:01;15.70;35.60
1011;DHT22;494;48.744;10.106;2023-05-07T06:22:30;15.90;34.70
1011;DHT22;494;48.744;10.106;2023-05-07T06:24:59;16.10;34.50
1011;DHT22;494;48.744;10.106;2023-05-07T06:27:28;16.30;34.20
1011;DHT22;494;48.744;10.106;2023-05-07T06:29:56;16.60;32.90
1011;DHT22;494;48.744;10.106;2023-05-07T06:32:27;16.80;32.30
1011;DHT22;494;48.744;10.106;2023-05-07T06:34:55;17.00;32.10
1011;DHT22;494;48.744;10.106;2023-05-07T06:37:24;17.20;31.70
1011;DHT22;494;48.744;10.106;2023-05-07T06:39:52;17.40;31.90
1011;DHT22;494;48.744;10.106;2023-05-07T06:42:22;17.50;31.60
1011;DHT22;494;48.744;10.106;2023-05-07T06:44:51;17.90;31.40
1011;DHT22;494;48.744;10.106;2023-05-07T06:47:19;18.20;30.80
1011;DHT22;494;48.744;10.106;2023-05-07T06:49:49;18.50;29.40
1011;DHT22;494;48.744;10.106;2023-05-07T06:52:18;18.70;28.80
1011;DHT22;494;48.744;10.106;2023-05-07T06:54:47;18.90;26.80
1011;DHT22;494;48.744;10.106;2023-05-07T06:57:15;19.20;26.20
1011;DHT22;494;48.744;10.106;2023-05-07T06:59:44;19.40;25.30
1011;DHT22;494;48.744;10.106;2023-05-07T07:02:12;19.50;24.70
1011;DHT22;494;48.744;10.106;2023-05-07T07:04:45;19.60;24.40
1011;DHT22;494;48.744;10.106;2023-05-07T07:07:14;19.90;23.50
1011;DHT22;494;48.744;10.106;2023-05-07T07:09:44;20.20;22.00
1011;DHT22;494;48.744;10.106;2023-05-07T07:12:12;20.30;21.00
1011;DHT22;494;48.744;10.106;2023-05-07T07:14:41;20.50;20.50
1011;DHT22;494;48.744;10.106;2023-05-07T07:17:10;20.60;20.20
1011;DHT22;494;48.744;10.106;2023-05-07T07:19:38;20.70;19.10
1011;DHT22;494;48.744;10.106;2023-05-07T07:22:07;20.80;19.00
1011;DHT22;494;48.744;10.106;2023-05-07T07:24:37;20.80;18.70
1011;DHT22;494;48.744;10.106;2023-05-07T07:27:06;20.70;18.70
1011;DHT22;494;48.744;10.106;2023-05-07T07:29:34;20.80;19.30
1011;DHT22;494;48.744;10.106;2023-05-07T07:32:04;20.90;18.60
1011;DHT22;494;48.744;10.106;2023-05-07T07:34:33;21.10;19.10
1011;DHT22;494;48.744;10.106;2023-05-07T07:37:01;21.20;18.20
1011;DHT22;494;48.744;10.106;2023-05-07T07:39:33;21.50;17.30
1011;DHT22;494;48.744;10.106;2023-05-07T07:42:03;21.70;17.10
1011;DHT22;494;48.744;10.106;2023-05-07T07:44:32;21.80;17.00
1011;DHT22;494;48.744;10.106;2023-05-07T07:47:01;22.10;17.60
1011;DHT22;494;48.744;10.106;2023-05-07T07:49:29;22.40;16.10
1011;DHT22;494;48.744;10.106;2023-05-07T07:51:58;22.80;15.50
1011;DHT22;494;48.744;10.106;2023-05-07T07:54:27;23.20;16.10
1011;DHT22;494;48.744;10.106;2023-05-07T07:56:56;23.50;13.70
1011;DHT22;494;48.744;10.106;2023-05-07T07:59:26;23.80;13.30
1011;DHT22;494;48.744;10.106;2023-05-07T08:01:54;24.00;13.80
1011;DHT22;494;48.744;10.106;2023-05-07T08:04:24;24.40;13.00
1011;DHT22;494;48.744;10.106;2023-05-07T08:06:52;24.70;12.30
1011;DHT22;494;48.744;10.106;2023-05-07T08:09:23;24.80;11.20
1011;DHT22;494;48.744;10.106;2023-05-07T08:11:52;24.70;10.60
1011;DHT22;494;48.744;10.106;2023-05-07T08:14:20;24.60;11.20
1011;DHT22;494;48.744;10.106;2023-05-07T08:16:51;24.70;13.10
1011;DHT22;494;48.744;10.106;2023-05-07T08:19:19;24.90;11.10
1011;DHT22;494;48.744;10.106;2023-05-07T08:21:48;25.00;11.00
1011;DHT22;494;48.744;10.106;2023-05-07T08:24:18;25.20;11.80
1011;DHT22;494;48.744;10.106;2023-05-07T08:26:46;25.30;9.80
1011;DHT22;494;48.744;10.106;2023-05-07T08:29:16;25.50;9.00
1011;DHT22;494;48.744;10.106;2023-05-07T08:31:44;25.50;10.20
1011;DHT22;494;48.744;10.106;2023-05-07T08:34:15;25.70;8.80
1011;DHT22;494;48.744;10.106;2023-05-07T08:36:44;25.70;9.30
1011;DHT22;494;48.744;10.106;2023-05-07T08:39:15;25.70;9.10
1011;DHT22;494;48.744;10.106;2023-05-07T08:41:45;25.70;7.60
1011;DHT22;494;48.744;10.106;2023-05-07T08:44:14;25.50;8.30
1011;DHT22;494;48.744;10.106;2023-05-07T08:46:45;25.30;7.90
1011;DHT22;494;48.744;10.106;2023-05-07T08:49:18;25.20;8.90
1011;DHT22;494;48.744;10.106;2023-05-07T08:51:47;25.30;8.20
1011;DHT22;494;48.744;10.106;2023-05-07T08:54:16;25.40;7.80
1011;DHT22;494;48.744;10.106;2023-05-07T08:56:46;25.50;8.00
1011;DHT22;494;48.744;10.106;2023-05-07T08:59:15;25.70;8.40
1011;DHT22;494;48.744;10.106;2023-05-07T09:01:43;25.90;7.60
1011;DHT22;494;48.744;10.106;2023-05-07T09:04:12;25.90;7.60
1011;DHT22;494;48.744;10.106;2023-05-07T09:06:42;26.10;8.00
1011;DHT22;494;48.744;10.106;2023-05-07T09:09:14;26.30;8.00
1011;DHT22;494;48.744;10.106;2023-05-07T09:11:45;26.40;8.40
1011;DHT22;494;48.744;10.106;2023-05-07T09:14:14;26.70;6.70
1011;DHT22;494;48.744;10.106;2023-05-07T09:16:42;26.90;6.00
1011;DHT22;494;48.744;10.106;2023-05-07T09:19:11;27.10;6.00
1011;DHT22;494;48.744;10.106;2023-05-07T09:21:39;27.20;6.70
1011;DHT22;494;48.744;10.106;2023-05-07T09:24:10;27.20;5.80
1011;DHT22;494;48.744;10.106;2023-05-07T09:26:39;27.50;5.70
1011;DHT22;494;48.744;10.106;2023-05-07T09:29:08;27.40;4.90
1011;DHT22;494;48.744;10.106;2023-05-07T09:31:38;27.50;5.00
1011;DHT22;494;48.744;10.106;2023-05-07T09:34:07;27.60;6.40
1011;DHT22;494;48.744;10.106;2023-05-07T09:36:36;27.80;6.50
1011;DHT22;494;48.744;10.106;2023-05-07T09:39:06;28.10;5.40
1011;DHT22;494;48.744;10.106;2023-05-07T09:41:43;28.30;4.30
1011;DHT22;494;48.744;10.106;2023-05-07T09:44:12;28.40;5.60
1011;DHT22;494;48.744;10.106;2023-05-07T09:46:43;28.40;3.70
1011;DHT22;494;48.744;10.106;2023-05-07T09:49:18;28.30;4.40
1011;DHT22;494;48.744;10.106;2023-05-07T09:51:51;28.50;4.30
1011;DHT22;494;48.744;10.106;2023-05-07T09:54:22;28.60;4.00
1011;DHT22;494;48.744;10.106;2023-05-07T09:56:52;28.80;3.30
1011;DHT22;494;48.744;10.106;2023-05-07T09:59:21;28.80;3.40
1011;DHT22;494;48.744;10.106;2023-05-07T10:01:52;28.80;3.20
1011;DHT22;494;48.744;10.106;2023-05-07T10:04:25;29.00;3.10
1011;DHT22;494;48.744;10.106;2023-05-07T10:06:54;28.80;2.10
1011;DHT22;494;48.744;10.106;2023-05-07T10:09:26;28.70;2.00
1011;DHT22;494;48.744;10.106;2023-05-07T10:11:55;28.50;3.30
1011;DHT22;494;48.744;10.106;2023-05-07T10:14:25;28.40;3.20
1011;DHT22;494;48.744;10.106;2023-05-07T10:16:57;28.40;1.70
1011;DHT22;494;48.744;10.106;2023-05-07T10:19:27;28.50;1.60
1011;DHT22;494;48.744;10.106;2023-05-07T10:22:01;28.50;1.30
1011;DHT22;494;48.744;10.106;2023-05-07T10:24:36;28.20;1.70
1011;DHT22;494;48.744;10.106;2023-05-07T10:27:08;28.00;3.00
1011;DHT22;494;48.744;10.106;2023-05-07T10:29:44;27.90;2.20
1011;DHT22;494;48.744;10.106;2023-05-07T10:32:30;28.10;3.70
1011;DHT22;494;48.744;10.106;2023-05-07T10:35:10;28.20;2.90
1011;DHT22;494;48.744;10.106;2023-05-07T10:37:44;28.30;2.50
1011;DHT22;494;48.744;10.106;2023-05-07T10:40:15;28.40;1.80
1011;DHT22;494;48.744;10.106;2023-05-07T10:42:54;28.30;3.00
1011;DHT22;494;48.744;10.106;2023-05-07T10:45:24;28.50;1.90
1011;DHT22;494;48.744;10.106;2023-05-07T10:48:07;28.70;1.40
1011;DHT22;494;48.744;10.106;2023-05-07T10:51:20;28.70;1.90
1011;DHT22;494;48.744;10.106;2023-05-07T10:54:21;28.70;2.00
1011;DHT22;494;48.744;10.106;2023-05-07T10:56:52;28.90;1.90
1011;DHT22;494;48.744;10.106;2023-05-07T10:59:36;29.00;2.00
1011;DHT22;494;48.744;10.106;2023-05-07T11:02:10;29.00;1.90
1011;DHT22;494;48.744;10.106;2023-05-07T11:04:41;28.80;2.60
1011;DHT22;494;48.744;10.106;2023-05-07T11:07:29;28.90;1.80
1011;DHT22;494;48.744;10.106;2023-05-07T11:10:00;28.90;1.80
1011;DHT22;494;48.744;10.106;2023-05-07T11:13:01;28.80;1.30
1011;DHT22;494;48.744;10.106;2023-05-07T11:15:49;28.70;2.20
1011;DHT22;494;48.744;10.106;2023-05-07T11:18:19;28.60;3.40
1011;DHT22;494;48.744;10.106;2023-05-07T11:20:56;28.60;3.00
1011;DHT22;494;48.744;10.106;2023-05-07T11:23:57;28.70;2.90
1011;DHT22;494;48.744;10.106;2023-05-07T11:26:28;28.70;1.50
1011;DHT22;494;48.744;10.106;2023-05-07T11:29:00;28.80;1.60
1011;DHT22;494;48.744;10.106;2023-05-07T11:31:28;28.80;1.60
1011;DHT22;494;48.744;10.106;2023-05-07T11:33:57;28.70;2.40
1011;DHT22;494;48.744;10.106;2023-05-07T11:36:32;28.80;1.70
1011;DHT22;494;48.744;10.106;2023-05-07T11:39:01;29.00;2.40
1011;DHT22;494;48.744;10.106;2023-05-07T11:41:34;28.80;2.90
1011;DHT22;494;48.744;10.106;2023-05-07T11:44:05;28.70;2.30
1011;DHT22;494;48.744;10.106;2023-05-07T11:46:37;28.50;2.80
1011;DHT22;494;48.744;10.106;2023-05-07T11:49:10;28.10;2.70
1011;DHT22;494;48.744;10.106;2023-05-07T11:51:39;28.00;2.80
1011;DHT22;494;48.744;10.106;2023-05-07T11:54:09;28.30;3.30
1011;DHT22;494;48.744;10.106;2023-05-07T11:56:40;28.60;2.70
1011;DHT22;494;48.744;10.106;2023-05-07T11:59:10;28.80;1.80
1011;DHT22;494;48.744;10.106;2023-05-07T12:01:39;28.80;1.90
1011;DHT22;494;48.744;10.106;2023-05-07T12:04:08;29.10;3.60
1011;DHT22;494;48.744;10.106;2023-05-07T12:06:37;29.30;2.10
1011;DHT22;494;48.744;10.106;2023-05-07T12:09:06;29.20;1.80
1011;DHT22;494;48.744;10.106;2023-05-07T12:11:38;29.30;1.70
1011;DHT22;494;48.744;10.106;2023-05-07T12:14:07;29.50;1.60
1011;DHT22;494;48.744;10.106;2023-05-07T12:16:39;29.60;1.70
1011;DHT22;494;48.744;10.106;2023-05-07T12:19:09;29.60;2.20
1011;DHT22;494;48.744;10.106;2023-05-07T12:21:42;29.50;2.70
1011;DHT22;494;48.744;10.106;2023-05-07T12:24:10;29.40;2.20
1011;DHT22;494;48.744;10.106;2023-05-07T12:26:39;29.30;1.40
1011;DHT22;494;48.744;10.106;2023-05-07T12:29:10;28.90;1.40
1011;DHT22;494;48.744;10.106;2023-05-07T12:31:40;28.70;1.80
1011;DHT22;494;48.744;10.106;2023-05-07T12:34:11;28.50;2.50
1011;DHT22;494;48.744;10.106;2023-05-07T12:36:40;28.30;3.00
1011;DHT22;494;48.744;10.106;2023-05-07T12:39:09;28.30;3.90
1011;DHT22;494;48.744;10.106;2023-05-07T12:41:52;28.20;4.70
1011;DHT22;494;48.744;10.106;2023-05-07T12:44:23;28.30;3.90
1011;DHT22;494;48.744;10.106;2023-05-07T12:46:53;28.40;3.50
1011;DHT22;494;48.744;10.106;2023-05-07T12:49:23;28.40;3.50
1011;DHT22;494;48.744;10.106;2023-05-07T12:51:53;28.20;3.90
1011;DHT22;494;48.744;10.106;2023-05-07T12:54:29;27.90;3.80
1011;DHT22;494;48.744;10.106;2023-05-07T12:57:02;27.50;5.50
1011;DHT22;494;48.744;10.106;2023-05-07T12:59:33;27.20;5.50
1011;DHT22;494;48.744;10.106;2023-05-07T13:02:05;27.20;5.50
1011;DHT22;494;48.744;10.106;2023-05-07T13:04:34;26.90;5.00
1011;DHT22;494;48.744;10.106;2023-05-07T13:07:03;26.60;5.50
1011;DHT22;494;48.744;10.106;2023-05-07T13:09:33;26.50;5.50
1011;DHT22;494;48.744;10.106;2023-05-07T13:12:04;26.50;6.40
1011;DHT22;494;48.744;10.106;2023-05-07T13:14:37;26.50;7.00
1011;DHT22;494;48.744;10.106;2023-05-07T13:17:06;26.70;6.50
1011;DHT22;494;48.744;10.106;2023-05-07T13:19:34;26.70;6.50
1011;DHT22;494;48.744;10.106;2023-05-07T13:22:04;26.70;5.80
1011;DHT22;494;48.744;10.106;2023-05-07T13:24:33;26.80;6.00
1011;DHT22;494;48.744;10.106;2023-05-07T13:27:02;26.80;5.60
1011;DHT22;494;48.744;10.106;2023-05-07T13:29:31;26.80;5.70
1011;DHT22;494;48.744;10.106;2023-05-07T13:32:01;26.80;6.20
1011;DHT22;494;48.744;10.106;2023-05-07T13:34:29;26.70;6.50
1011;DHT22;494;48.744;10.106;2023-05-07T13:36:58;26.70;5.50
1011;DHT22;494;48.744;10.106;2023-05-07T13:39:27;26.80;5.70
1011;DHT22;494;48.744;10.106;2023-05-07T13:41:55;26.80;5.90
1011;DHT22;494;48.744;10.106;2023-05-07T13:44:24;26.70;6.60
1011;DHT22;494;48.744;10.106;2023-05-07T13:46:54;26.70;6.20
1011;DHT22;494;48.744;10.106;2023-05-07T13:49:24;26.60;6.20
1011;DHT22;494;48.744;10.106;2023-05-07T13:51:52;26.60;6.30
1011;DHT22;494;48.744;10.106;2023-05-07T13:54:21;26.40;6.50
1011;DHT22;494;48.744;10.106;2023-05-07T13:56:50;26.40;6.70
1011;DHT22;494;48.744;10.106;2023-05-07T13:59:19;26.40;7.30
1011;DHT22;494;48.744;10.106;2023-05-07T14:01:48;26.40;6.80
1011;DHT22;494;48.744;10.106;2023-05-07T14:04:16;26.40;6.70
1011;DHT22;494;48.744;10.106;2023-05-07T14:06:46;26.40;7.10
1011;DHT22;494;48.744;10.106;2023-05-07T14:09:15;26.40;7.30
1011;DHT22;494;48.744;10.106;2023-05-07T14:11:44;26.30;7.20
1011;DHT22;494;48.744;10.106;2023-05-07T14:14:14;26.20;7.60
1011;DHT22;494;48.744;10.106;2023-05-07T14:16:42;26.00;6.80
1011;DHT22;494;48.744;10.106;2023-05-07T14:19:14;25.90;6.60
1011;DHT22;494;48.744;10.106;2023-05-07T14:21:42;25.80;7.60
1011;DHT22;494;48.744;10.106;2023-05-07T14:24:12;25.70;7.20
1011;DHT22;494;48.744;10.106;2023-05-07T14:26:56;25.70;7.80
1011;DHT22;494;48.744;10.106;2023-05-07T14:29:25;25.70;7.50
1011;DHT22;494;48.744;10.106;2023-05-07T14:31:53;25.80;7.50
1011;DHT22;494;48.744;10.106;2023-05-07T14:34:22;25.80;7.30
1011;DHT22;494;48.744;10.106;2023-05-07T14:36:51;25.80;7.90
1011;DHT22;494;48.744;10.106;2023-05-07T14:39:21;25.80;7.80
1011;DHT22;494;48.744;10.106;2023-05-07T14:41:50;25.80;7.20
1011;DHT22;494;48.744;10.106;2023-05-07T14:44:18;25.60;7.60
1011;DHT22;494;48.744;10.106;2023-05-07T14:46:49;25.60;8.20
1011;DHT22;494;48.744;10.106;2023-05-07T14:49:31;25.60;9.00
1011;DHT22;494;48.744;10.106;2023-05-07T14:52:06;25.60;7.90
1011;DHT22;494;48.744;10.106;2023-05-07T14:54:38;25.60;7.70
1011;DHT22;494;48.744;10.106;2023-05-07T14:57:10;25.50;7.90
1011;DHT22;494;48.744;10.106;2023-05-07T14:59:40;25.50;8.00
1011;DHT22;494;48.744;10.106;2023-05-07T15:02:09;25.30;8.50
1011;DHT22;494;48.744;10.106;2023-05-07T15:04:39;25.30;8.80
1011;DHT22;494;48.744;10.106;2023-05-07T15:07:13;25.30;9.00
1011;DHT22;494;48.744;10.106;2023-05-07T15:09:44;25.30;8.70
1011;DHT22;494;48.744;10.106;2023-05-07T15:12:14;25.30;8.60
1011;DHT22;494;48.744;10.106;2023-05-07T15:14:43;25.20;8.70
1011;DHT22;494;48.744;10.106;2023-05-07T15:17:11;25.10;9.20
1011;DHT22;494;48.744;10.106;2023-05-07T15:19:41;25.20;9.80
1011;DHT22;494;48.744;10.106;2023-05-07T15:22:10;25.10;9.30
1011;DHT22;494;48.744;10.106;2023-05-07T15:24:40;25.10;9.10
1011;DHT22;494;48.744;10.106;2023-05-07T15:27:10;25.00;10.10
1011;DHT22;494;48.744;10.106;2023-05-07T15:29:39;25.10;9.70
1011;DHT22;494;48.744;10.106;2023-05-07T15:32:07;25.10;9.50
1011;DHT22;494;48.744;10.106;2023-05-07T15:34:37;25.10;9.50
1011;DHT22;494;48.744;10.106;2023-05-07T15:37:06;25.00;9.00
1011;DHT22;494;48.744;10.106;2023-05-07T15:39:34;25.10;8.90
1011;DHT22;494;48.744;10.106;2023-05-07T15:42:03;25.00;9.00
1011;DHT22;494;48.744;10.106;2023-05-07T15:44:33;25.10;8.80
1011;DHT22;494;48.744;10.106;2023-05-07T15:47:02;25.00;8.80
1011;DHT22;494;48.744;10.106;2023-05-07T15:49:55;25.00;8.90
1011;DHT22;494;48.744;10.106;2023-05-07T15:52:56;25.00;8.90
1011;DHT22;494;48.744;10.106;2023-05-07T15:55:24;24.90;9.10
1011;DHT22;494;48.744;10.106;2023-05-07T15:57:53;24.90;9.30
1011;DHT22;494;48.744;10.106;2023-05-07T16:00:25;25.00;9.40
1011;DHT22;494;48.744;10.106;2023-05-07T16:02:55;25.00;9.50
1011;DHT22;494;48.744;10.106;2023-05-07T16:05:24;25.00;11.60
1011;DHT22;494;48.744;10.106;2023-05-07T16:07:53;24.50;14.60
1011;DHT22;494;48.744;10.106;2023-05-07T16:10:23;23.80;14.10
1011;DHT22;494;48.744;10.106;2023-05-07T16:12:52;23.30;15.00
1011;DHT22;494;48.744;10.106;2023-05-07T16:15:22;23.00;15.80
1011;DHT22;494;48.744;10.106;2023-05-07T16:17:52;22.60;16.40
1011;DHT22;494;48.744;10.106;2023-05-07T16:20:26;22.30;17.30
1011;DHT22;494;48.744;10.106;2023-05-07T16:22:57;22.20;17.50
1011;DHT22;494;48.744;10.106;2023-05-07T16:25:26;22.00;17.90
1011;DHT22;494;48.744;10.106;2023-05-07T16:27:55;21.90;18.00
1011;DHT22;494;48.744;10.106;2023-05-07T16:30:25;21.80;18.30